createdAt,value
2017-08-08T00:01:07.962Z,17.80
2017-08-08T00:03:35.591Z,18.73
2017-08-08T00:06:03.254Z,18.80
2017-08-08T00:08:31.572Z,17.27
2017-08-08T00:10:59.083Z,18.53
2017-08-08T00:13:26.588Z,22.20
2017-08-08T00:15:54.111Z,20.33
2017-08-08T00:18:22.778Z,17.40
2017-08-08T00:20:50.324Z,17.83
2017-08-08T00:23:17.838Z,19.87
2017-08-08T00:25:45.662Z,19.83
2017-08-08T00:28:13.527Z,19.93
2017-08-08T00:30:41.042Z,18.00
2017-08-08T00:33:08.575Z,22.07
2017-08-08T00:35:36.083Z,20.87
2017-08-08T00:38:03.600Z,19.20
2017-08-08T00:40:31.120Z,19.83
2017-08-08T00:42:58.629Z,20.97
2017-08-08T00:45:26.163Z,24.70
2017-08-08T00:47:53.680Z,21.40
2017-08-08T00:50:21.191Z,23.97
2017-08-08T00:52:48.718Z,24.73
2017-08-08T00:55:16.223Z,23.77
2017-08-08T00:57:43.755Z,21.30
2017-08-08T01:00:11.513Z,22.70
2017-08-08T01:02:39.024Z,19.30
2017-08-08T01:05:06.543Z,22.40
2017-08-08T01:07:34.060Z,19.93
2017-08-08T01:10:01.575Z,16.63
2017-08-08T01:12:29.082Z,19.07
2017-08-08T01:14:56.622Z,19.20
2017-08-08T01:17:24.132Z,20.50
2017-08-08T01:19:51.647Z,18.83
2017-08-08T01:22:19.171Z,20.87
2017-08-08T01:24:46.679Z,17.87
2017-08-08T01:27:14.203Z,21.13
2017-08-08T01:29:41.702Z,17.13
2017-08-08T01:32:10.003Z,18.33
2017-08-08T01:34:37.507Z,17.80
2017-08-08T01:37:05.006Z,21.30
2017-08-08T01:39:32.526Z,19.53
2017-08-08T01:42:00.045Z,18.33
2017-08-08T01:44:27.577Z,20.43
2017-08-08T01:46:55.848Z,21.10
2017-08-08T01:49:23.350Z,21.47
2017-08-08T01:51:50.877Z,22.90
2017-08-08T01:54:18.383Z,23.83
2017-08-08T01:56:45.906Z,22.60
2017-08-08T01:59:13.416Z,24.53
2017-08-08T02:01:40.923Z,28.40
2017-08-08T02:04:08.451Z,22.90
2017-08-08T02:06:35.959Z,25.70
2017-08-08T02:09:03.503Z,24.87
2017-08-08T02:11:31.007Z,30.43
2017-08-08T02:13:58.512Z,22.30
2017-08-08T02:16:26.047Z,22.53
2017-08-08T02:18:53.551Z,18.97
2017-08-08T02:21:21.075Z,25.13
2017-08-08T02:23:48.583Z,20.23
2017-08-08T02:26:16.122Z,24.53
2017-08-08T02:28:43.627Z,22.43
2017-08-08T02:31:11.136Z,20.47
2017-08-08T02:33:38.663Z,24.13
2017-08-08T02:36:06.176Z,19.47
2017-08-08T02:38:33.694Z,20.57
2017-08-08T02:41:01.194Z,23.63
2017-08-08T02:43:28.740Z,20.07
2017-08-08T02:45:56.240Z,20.73
2017-08-08T02:48:23.751Z,20.70
2017-08-08T02:50:51.271Z,19.27
2017-08-08T02:53:19.553Z,19.70
2017-08-08T02:55:47.088Z,17.80
2017-08-08T02:58:14.590Z,23.60
2017-08-08T03:00:42.118Z,20.07
2017-08-08T03:03:09.632Z,19.23
2017-08-08T03:05:37.140Z,21.50
2017-08-08T03:08:04.656Z,19.87
2017-08-08T03:10:32.163Z,16.43
2017-08-08T03:12:59.691Z,20.23
2017-08-08T03:15:27.199Z,21.10
2017-08-08T03:17:54.742Z,17.53
2017-08-08T03:20:22.574Z,17.73
2017-08-08T03:22:50.075Z,20.50
2017-08-08T03:25:17.608Z,25.33
2017-08-08T03:27:45.877Z,21.80
2017-08-08T03:30:14.172Z,40.43
2017-08-08T03:32:42.164Z,17.93
2017-08-08T03:35:09.687Z,27.13
2017-08-08T03:37:37.959Z,22.23
2017-08-08T03:40:06.295Z,24.30
2017-08-08T03:42:33.799Z,23.67
2017-08-08T03:45:02.062Z,24.70
2017-08-08T03:47:29.583Z,24.37
2017-08-08T03:49:57.087Z,22.10
2017-08-08T03:52:25.387Z,21.90
2017-08-08T03:54:52.891Z,25.03
2017-08-08T03:57:20.418Z,26.17
2017-08-08T03:59:47.924Z,25.07
2017-08-08T04:02:15.423Z,24.70
2017-08-08T04:04:42.944Z,28.33
2017-08-08T04:07:10.443Z,27.10
2017-08-08T04:09:38.367Z,23.40
2017-08-08T04:12:05.876Z,26.73
2017-08-08T04:14:33.404Z,25.07
2017-08-08T04:17:01.671Z,25.30
2017-08-08T04:19:29.943Z,23.63
2017-08-08T04:21:58.511Z,25.90
2017-08-08T04:24:26.015Z,28.90
2017-08-08T04:26:53.542Z,24.40
2017-08-08T04:29:21.819Z,23.20
2017-08-08T04:31:50.116Z,28.40
2017-08-08T04:34:17.624Z,21.40
2017-08-08T04:36:45.118Z,25.80
2017-08-08T04:39:12.648Z,25.20
2017-08-08T04:41:40.156Z,21.93
2017-08-08T04:44:07.683Z,23.77
2017-08-08T04:46:35.187Z,20.07
2017-08-08T04:49:02.721Z,20.70
2017-08-08T04:51:30.261Z,21.03
2017-08-08T04:53:58.539Z,19.10
2017-08-08T04:56:26.835Z,18.67
2017-08-08T04:58:54.356Z,20.30
2017-08-08T05:01:21.887Z,27.50
2017-08-08T05:03:49.392Z,18.37
2017-08-08T05:06:17.667Z,21.70
2017-08-08T05:08:45.964Z,26.33
2017-08-08T05:11:13.472Z,20.10
2017-08-08T05:13:40.986Z,16.63
2017-08-08T05:16:08.488Z,16.73
2017-08-08T05:18:36.024Z,17.00
2017-08-08T05:21:03.526Z,19.07
2017-08-08T05:23:31.034Z,17.83
2017-08-08T05:25:58.563Z,13.60
2017-08-08T05:28:26.074Z,13.93
2017-08-08T05:30:53.601Z,13.77
2017-08-08T05:33:21.110Z,12.10
2017-08-08T05:35:50.255Z,16.67
2017-08-08T05:38:17.763Z,16.20
2017-08-08T05:40:45.273Z,17.60
2017-08-08T05:43:12.803Z,18.93
2017-08-08T05:45:41.071Z,16.13
2017-08-08T05:48:09.356Z,13.87
2017-08-08T05:50:36.867Z,15.93
2017-08-08T05:53:04.402Z,14.83
2017-08-08T05:55:31.907Z,15.40
2017-08-08T05:57:59.411Z,15.43
2017-08-08T06:00:26.935Z,17.37
2017-08-08T06:02:54.443Z,11.93
2017-08-08T06:05:21.998Z,12.43
2017-08-08T06:07:49.502Z,16.60
2017-08-08T06:10:17.118Z,9.97
2017-08-08T06:12:44.620Z,9.67
2017-08-08T06:15:12.236Z,9.20
2017-08-08T06:17:39.739Z,7.70
2017-08-08T06:20:07.245Z,7.17
2017-08-08T06:22:34.761Z,8.87
2017-08-08T06:25:02.263Z,7.33
2017-08-08T06:27:29.784Z,6.40
2017-08-08T06:29:58.046Z,9.00
2017-08-08T06:32:25.567Z,6.57
2017-08-08T06:34:53.063Z,6.00
2017-08-08T06:37:20.563Z,6.40
2017-08-08T06:39:48.079Z,6.40
2017-08-08T06:42:15.588Z,6.90
2017-08-08T06:44:43.108Z,5.90
2017-08-08T06:47:10.617Z,8.27
2017-08-08T06:49:38.154Z,7.00
2017-08-08T06:52:05.654Z,5.80
2017-08-08T06:54:33.155Z,4.53
2017-08-08T06:57:00.675Z,6.83
2017-08-08T06:59:28.183Z,5.17
2017-08-08T07:01:55.704Z,7.40
2017-08-08T07:04:23.212Z,5.33
2017-08-08T07:06:50.736Z,5.40
2017-08-08T07:09:19.000Z,6.37
2017-08-08T07:11:46.503Z,6.30
2017-08-08T07:14:14.020Z,4.97
2017-08-08T07:16:41.523Z,4.30
2017-08-08T07:19:09.040Z,4.40
2017-08-08T07:21:36.539Z,7.00
2017-08-08T07:24:04.092Z,10.00
2017-08-08T07:26:31.595Z,8.37
2017-08-08T07:28:59.090Z,6.97
2017-08-08T07:31:26.615Z,5.00
2017-08-08T07:33:54.127Z,5.00
2017-08-08T07:36:21.658Z,4.80
2017-08-08T07:38:49.970Z,3.87
2017-08-08T07:41:17.475Z,4.97
2017-08-08T07:43:44.989Z,6.53
2017-08-08T07:46:12.490Z,4.73
2017-08-08T07:48:40.025Z,4.27
2017-08-08T07:51:07.518Z,6.90
2017-08-08T07:53:35.789Z,4.23
2017-08-08T07:56:04.078Z,4.90
2017-08-08T07:58:32.347Z,4.40
2017-08-08T08:01:00.646Z,4.87
2017-08-08T08:03:28.151Z,5.53
2017-08-08T08:05:55.647Z,4.30
2017-08-08T08:08:23.936Z,3.97
2017-08-08T08:10:51.447Z,4.40
2017-08-08T08:13:18.970Z,3.87
2017-08-08T08:15:46.467Z,4.20
2017-08-08T08:18:13.968Z,4.33
2017-08-08T08:20:41.486Z,3.80
2017-08-08T08:23:08.986Z,3.87
2017-08-08T08:25:36.507Z,4.90
2017-08-08T08:28:04.008Z,3.50
2017-08-08T08:30:31.514Z,3.87
2017-08-08T08:32:59.036Z,4.80
2017-08-08T08:35:26.535Z,3.80
2017-08-08T08:37:54.072Z,3.97
2017-08-08T08:40:21.567Z,3.03
2017-08-08T08:42:49.832Z,4.27
2017-08-08T08:45:17.355Z,4.40
2017-08-08T08:47:44.851Z,4.10
2017-08-08T08:50:12.370Z,3.73
2017-08-08T08:52:39.879Z,10.77
2017-08-08T08:55:08.163Z,5.10
2017-08-08T08:57:36.427Z,4.10
2017-08-08T09:00:04.696Z,3.90
2017-08-08T09:02:32.212Z,5.03
2017-08-08T09:04:59.719Z,4.47
2017-08-08T09:07:28.015Z,3.33
2017-08-08T09:09:55.515Z,6.50
2017-08-08T09:12:23.006Z,3.80
2017-08-08T09:14:50.547Z,4.43
2017-08-08T09:17:18.381Z,3.57
2017-08-08T09:19:45.903Z,3.80
2017-08-08T09:22:14.162Z,3.73
2017-08-08T09:24:41.660Z,4.43
2017-08-08T09:27:09.175Z,4.87
2017-08-08T09:29:36.675Z,3.70
2017-08-08T09:32:04.216Z,3.40
2017-08-08T09:34:32.484Z,4.30
2017-08-08T09:37:00.747Z,3.50
2017-08-08T09:39:28.267Z,3.90
2017-08-08T09:41:55.769Z,3.53
2017-08-08T09:44:24.060Z,3.20
2017-08-08T09:46:52.331Z,4.90
2017-08-08T09:49:19.839Z,7.00
2017-08-08T09:51:47.362Z,3.80
2017-08-08T09:54:14.859Z,5.77
2017-08-08T09:56:42.383Z,4.10
2017-08-08T09:59:09.891Z,6.40
2017-08-08T10:01:37.395Z,4.20
2017-08-08T10:04:04.916Z,4.43
2017-08-08T10:06:32.434Z,3.80
2017-08-08T10:08:59.958Z,4.07
2017-08-08T10:11:28.216Z,3.60
2017-08-08T10:13:55.723Z,4.80
2017-08-08T10:16:23.244Z,4.07
2017-08-08T10:18:51.510Z,6.33
2017-08-08T10:21:19.007Z,5.20
2017-08-08T10:23:46.555Z,4.60
2017-08-08T10:26:14.051Z,3.63
2017-08-08T10:28:41.551Z,4.47
2017-08-08T10:31:09.831Z,4.57
2017-08-08T10:33:38.123Z,5.40
2017-08-08T10:36:05.663Z,10.43
2017-08-08T10:38:33.940Z,5.80
2017-08-08T10:41:02.212Z,4.63
2017-08-08T10:43:30.490Z,5.43
2017-08-08T10:45:58.761Z,4.63
2017-08-08T10:48:27.032Z,4.50
2017-08-08T10:50:54.547Z,4.33
2017-08-08T10:53:22.047Z,4.03
2017-08-08T10:55:49.548Z,4.67
2017-08-08T10:58:17.063Z,5.77
2017-08-08T11:00:44.571Z,4.03
2017-08-08T11:03:12.076Z,4.03
2017-08-08T11:05:39.601Z,4.67
2017-08-08T11:08:07.104Z,4.17
2017-08-08T11:10:35.368Z,5.00
2017-08-08T11:15:22.523Z,4.10
2017-08-08T11:17:50.792Z,8.80
2017-08-08T11:20:19.101Z,4.70
2017-08-08T11:22:46.603Z,4.90
2017-08-08T11:25:14.107Z,5.57
2017-08-08T11:27:41.634Z,5.60
2017-08-08T11:30:09.345Z,4.20
2017-08-08T11:32:36.871Z,9.07
2017-08-08T11:35:05.131Z,5.10
2017-08-08T11:37:32.639Z,4.40
2017-08-08T11:40:00.160Z,4.97
2017-08-08T11:42:28.453Z,6.13
2017-08-08T11:44:55.992Z,5.20
2017-08-08T11:47:24.254Z,4.03
2017-08-08T11:49:51.765Z,5.13
2017-08-08T11:52:19.283Z,3.97
2017-08-08T11:54:46.883Z,5.20
2017-08-08T11:57:14.419Z,4.30
2017-08-08T11:59:41.928Z,6.13
2017-08-08T12:02:09.437Z,4.83
2017-08-08T12:04:36.960Z,5.30
2017-08-08T12:07:04.458Z,5.37
2017-08-08T12:09:31.993Z,5.90
2017-08-08T12:12:00.264Z,10.93
2017-08-08T12:14:28.540Z,7.77
2017-08-08T12:16:56.834Z,10.70
2017-08-08T12:19:25.095Z,13.17
2017-08-08T12:21:53.390Z,12.43
2017-08-08T12:24:20.899Z,13.63
2017-08-08T12:26:48.395Z,12.10
2017-08-08T12:29:15.932Z,10.80
2017-08-08T12:31:43.434Z,9.10
2017-08-08T12:34:10.950Z,10.47
2017-08-08T12:36:38.480Z,9.70
2017-08-08T12:39:05.978Z,10.07
2017-08-08T12:41:34.277Z,12.63
2017-08-08T12:44:01.788Z,14.33
2017-08-08T12:46:29.295Z,11.37
2017-08-08T12:48:56.824Z,11.60
2017-08-08T12:51:24.327Z,13.63
2017-08-08T12:53:51.847Z,9.53
2017-08-08T12:56:20.115Z,8.87
2017-08-08T12:58:47.619Z,8.17
2017-08-08T13:01:15.142Z,9.50
2017-08-08T13:03:43.419Z,9.80
2017-08-08T13:06:10.939Z,9.30
2017-08-08T13:08:38.439Z,14.90
2017-08-08T13:11:05.978Z,9.93
2017-08-08T13:13:33.483Z,11.23
2017-08-08T13:16:00.993Z,15.27
2017-08-08T13:18:28.759Z,12.27
2017-08-08T13:20:56.255Z,13.00
2017-08-08T13:23:23.776Z,12.13
2017-08-08T13:25:51.291Z,11.83
2017-08-08T13:28:18.827Z,16.57
2017-08-08T13:30:46.344Z,15.40
2017-08-08T13:33:13.854Z,12.50
2017-08-08T13:35:41.379Z,13.50
2017-08-08T13:38:08.896Z,14.77
2017-08-08T13:40:36.441Z,11.03
2017-08-08T13:43:03.962Z,12.00
2017-08-08T13:45:32.479Z,19.03
2017-08-08T13:48:00.044Z,13.87
2017-08-08T13:50:27.556Z,15.03
2017-08-08T13:52:55.838Z,13.67
2017-08-08T13:55:24.107Z,13.30
2017-08-08T13:57:52.399Z,14.63
2017-08-08T14:00:19.907Z,11.40
2017-08-08T14:02:47.412Z,10.77
2017-08-08T14:05:14.935Z,8.17
2017-08-08T14:07:42.439Z,8.67
2017-08-08T14:10:09.984Z,10.40
2017-08-08T14:12:38.255Z,8.47
2017-08-08T14:15:06.523Z,8.87
2017-08-08T14:17:34.043Z,8.23
2017-08-08T14:20:01.548Z,8.40
2017-08-08T14:22:29.834Z,8.10
2017-08-08T14:24:58.104Z,12.17
2017-08-08T14:27:26.379Z,12.33
2017-08-08T14:29:54.669Z,9.40
2017-08-08T14:32:22.177Z,9.87
2017-08-08T14:34:49.709Z,16.87
2017-08-08T14:37:17.223Z,15.63
2017-08-08T14:39:45.500Z,15.30
2017-08-08T14:42:13.037Z,14.87
2017-08-08T14:44:40.548Z,13.53
2017-08-08T14:47:08.084Z,11.67
2017-08-08T14:49:36.363Z,15.20
2017-08-08T14:52:04.638Z,14.43
2017-08-08T14:54:32.932Z,13.53
2017-08-08T14:57:00.439Z,17.27
2017-08-08T14:59:27.979Z,12.60
2017-08-08T15:01:55.492Z,14.93
2017-08-08T15:04:23.011Z,14.37
2017-08-08T15:06:50.541Z,11.70
2017-08-08T15:09:18.049Z,14.80
2017-08-08T15:11:45.594Z,11.30
2017-08-08T15:14:13.100Z,9.33
2017-08-08T15:16:40.611Z,9.37
2017-08-08T15:19:08.131Z,9.20
2017-08-08T15:21:35.639Z,9.53
2017-08-08T15:24:03.184Z,6.40
2017-08-08T15:26:30.688Z,5.33
2017-08-08T15:28:58.197Z,7.30
2017-08-08T15:31:25.735Z,6.13
2017-08-08T15:33:53.234Z,5.67
2017-08-08T15:36:20.771Z,3.50
2017-08-08T15:38:48.269Z,4.50
2017-08-08T15:41:15.776Z,2.40
2017-08-08T15:43:43.310Z,5.50
2017-08-08T15:46:10.832Z,3.80
2017-08-08T15:48:38.373Z,3.90
2017-08-08T15:51:05.944Z,3.00
2017-08-08T15:53:33.452Z,3.23
2017-08-08T15:56:00.968Z,3.00
2017-08-08T15:58:29.241Z,5.43
2017-08-08T16:00:57.536Z,3.90
2017-08-08T16:03:25.030Z,8.10
2017-08-08T16:05:52.527Z,4.17
2017-08-08T16:08:20.050Z,4.17
2017-08-08T16:10:47.556Z,7.10
2017-08-08T16:13:15.864Z,4.90
2017-08-08T16:15:43.367Z,3.20
2017-08-08T16:18:10.908Z,4.90
2017-08-08T16:20:38.425Z,3.37
2017-08-08T16:23:05.936Z,4.93
2017-08-08T16:25:33.474Z,4.90
2017-08-08T16:28:00.975Z,9.70
2017-08-08T16:30:28.475Z,4.43
2017-08-08T16:32:55.994Z,5.07
2017-08-08T16:35:23.503Z,4.00
2017-08-08T16:37:51.023Z,5.43
2017-08-08T16:40:18.540Z,6.43
2017-08-08T16:42:46.084Z,5.57
2017-08-08T16:45:13.585Z,5.60
2017-08-08T16:47:41.863Z,10.03
2017-08-08T16:50:09.584Z,5.17
2017-08-08T16:52:37.088Z,5.57
2017-08-08T16:55:04.623Z,8.00
2017-08-08T16:57:32.128Z,5.33
2017-08-08T16:59:59.640Z,6.97
2017-08-08T17:02:27.156Z,4.17
2017-08-08T17:04:54.655Z,7.50
2017-08-08T17:07:22.175Z,4.10
2017-08-08T17:09:49.683Z,7.13
2017-08-08T17:12:17.958Z,6.43
2017-08-08T17:14:46.239Z,7.60
2017-08-08T17:17:14.503Z,6.90
2017-08-08T17:19:42.015Z,4.90
2017-08-08T17:22:09.527Z,4.37
2017-08-08T17:24:37.055Z,5.43
2017-08-08T17:27:04.554Z,5.67
2017-08-08T17:29:32.066Z,4.87
2017-08-08T17:31:59.571Z,3.83
2017-08-08T17:34:27.094Z,3.77
2017-08-08T17:36:54.603Z,7.10
2017-08-08T17:39:22.123Z,6.93
2017-08-08T17:41:49.630Z,5.33
2017-08-08T17:44:17.175Z,7.47
2017-08-08T17:46:44.715Z,4.40
2017-08-08T17:49:12.214Z,4.37
2017-08-08T17:51:39.735Z,8.37
2017-08-08T17:54:07.245Z,8.33
2017-08-08T17:56:34.771Z,4.87
2017-08-08T17:59:02.275Z,7.63
2017-08-08T18:01:29.780Z,6.33
2017-08-08T18:03:57.303Z,5.03
2017-08-08T18:06:24.811Z,13.40
2017-08-08T18:08:52.352Z,10.10
2017-08-08T18:11:20.627Z,6.27
2017-08-08T18:13:48.899Z,4.70
2017-08-08T18:16:17.196Z,5.60
2017-08-08T18:18:44.703Z,4.03
2017-08-08T18:21:12.251Z,5.10
2017-08-08T18:23:39.750Z,5.10
2017-08-08T18:26:07.255Z,8.00
2017-08-08T18:28:34.775Z,7.50
2017-08-08T18:31:02.280Z,5.47
2017-08-08T18:33:29.822Z,5.90
2017-08-08T18:35:57.331Z,5.27
2017-08-08T18:38:25.658Z,7.17
2017-08-08T18:40:53.198Z,6.63
2017-08-08T18:43:20.711Z,7.53
2017-08-08T18:45:48.255Z,12.20
2017-08-08T18:48:15.763Z,5.40
2017-08-08T18:50:43.335Z,6.40
2017-08-08T18:53:10.871Z,8.50
2017-08-08T18:55:38.390Z,9.77
2017-08-08T18:58:05.944Z,7.57
2017-08-08T19:00:33.451Z,5.27
2017-08-08T19:03:00.954Z,7.03
2017-08-08T19:05:28.480Z,6.50
2017-08-08T19:07:55.983Z,6.20
2017-08-08T19:10:23.544Z,4.40
2017-08-08T19:12:51.059Z,7.40
2017-08-08T19:15:18.571Z,7.47
2017-08-08T19:17:46.104Z,5.80
2017-08-08T19:20:13.621Z,6.70
2017-08-08T19:22:41.164Z,4.90
2017-08-08T19:25:08.736Z,8.83
2017-08-08T19:27:36.259Z,9.43
2017-08-08T19:30:03.800Z,4.03
2017-08-08T19:32:31.304Z,7.07
2017-08-08T19:34:58.855Z,5.13
2017-08-08T19:37:27.127Z,4.67
2017-08-08T19:39:54.632Z,4.73
2017-08-08T19:42:22.159Z,6.13
2017-08-08T19:44:49.673Z,6.40
2017-08-08T19:47:17.213Z,4.83
2017-08-08T19:49:44.715Z,6.00
2017-08-08T19:52:12.236Z,5.73
2017-08-08T19:54:39.758Z,7.10
2017-08-08T19:57:07.258Z,10.43
2017-08-08T19:59:34.807Z,4.20
2017-08-08T20:02:02.311Z,3.80
2017-08-08T20:04:29.812Z,3.77
2017-08-08T20:06:57.327Z,5.00
2017-08-08T20:09:25.599Z,4.63
2017-08-08T20:11:53.147Z,5.57
2017-08-08T20:14:20.647Z,5.60
2017-08-08T20:16:48.155Z,5.90
2017-08-08T20:19:15.675Z,4.50
2017-08-08T20:21:43.190Z,3.77
2017-08-08T20:24:10.734Z,6.90
2017-08-08T20:29:12.871Z,1.80
2017-08-08T20:31:40.371Z,1.57
2017-08-08T20:34:07.866Z,3.20
2017-08-08T20:36:35.390Z,6.40
2017-08-08T20:39:02.891Z,3.80
2017-08-08T20:41:30.416Z,2.30
2017-08-08T20:43:57.923Z,4.27
2017-08-08T20:46:25.469Z,6.17
2017-08-08T20:48:52.981Z,2.40
2017-08-08T20:51:20.488Z,2.37
2017-08-08T20:53:48.016Z,5.43
2017-08-08T20:56:15.528Z,3.73
2017-08-08T20:58:43.055Z,3.63
2017-08-08T21:01:10.555Z,5.10
2017-08-08T21:03:38.083Z,2.50
2017-08-08T21:06:05.579Z,3.67
2017-08-08T21:08:33.459Z,2.90
2017-08-08T21:11:01.783Z,2.40
2017-08-08T21:13:29.288Z,4.87
2017-08-08T21:15:56.802Z,5.77
2017-08-08T21:18:24.303Z,2.47
2017-08-08T21:20:51.825Z,3.43
2017-08-08T21:23:19.335Z,2.80
2017-08-08T21:25:46.850Z,3.93
2017-08-08T21:28:14.378Z,4.63
2017-08-08T21:30:41.875Z,3.43
2017-08-08T21:33:09.395Z,4.90
2017-08-08T21:35:36.899Z,6.40
2017-08-08T21:38:04.420Z,4.60
2017-08-08T21:40:31.926Z,4.50
2017-08-08T21:42:59.426Z,4.10
2017-08-08T21:45:26.943Z,3.47
2017-08-08T21:47:54.448Z,1.70
2017-08-08T21:50:21.972Z,3.27
2017-08-08T21:52:49.470Z,4.10
2017-08-08T21:55:16.992Z,3.13
2017-08-08T21:57:44.491Z,4.20
2017-08-08T22:00:11.983Z,2.00
2017-08-08T22:02:39.499Z,2.30
2017-08-08T22:05:07.004Z,2.63
2017-08-08T22:07:34.524Z,2.40
2017-08-08T22:10:02.024Z,2.63
2017-08-08T22:12:29.569Z,1.40
2017-08-08T22:14:57.074Z,1.63
2017-08-08T22:17:24.579Z,2.17
2017-08-08T22:19:52.099Z,2.47
2017-08-08T22:22:19.594Z,1.40
2017-08-08T22:24:47.115Z,3.33
2017-08-08T22:27:14.615Z,4.20
2017-08-08T22:29:42.131Z,2.80
2017-08-08T22:32:09.632Z,3.80
2017-08-08T22:34:37.134Z,1.97
2017-08-08T22:37:05.424Z,1.77
2017-08-08T22:39:32.919Z,4.13
2017-08-08T22:42:00.443Z,1.20
2017-08-08T22:44:27.943Z,2.23
2017-08-08T22:46:55.440Z,2.60
2017-08-08T22:49:23.722Z,1.70
2017-08-08T22:51:51.223Z,1.50
2017-08-08T22:54:18.743Z,2.07
2017-08-08T22:56:47.012Z,2.23
2017-08-08T22:59:15.279Z,6.30
2017-08-08T23:01:42.791Z,8.27
2017-08-08T23:04:10.296Z,3.90
2017-08-08T23:06:37.815Z,1.23
2017-08-08T23:09:05.322Z,2.70
2017-08-08T23:11:33.591Z,3.00
2017-08-08T23:14:01.107Z,5.97
2017-08-08T23:16:28.611Z,3.60
2017-08-08T23:18:56.890Z,1.47
2017-08-08T23:21:25.160Z,4.33
2017-08-08T23:23:53.446Z,4.63
2017-08-08T23:26:21.726Z,3.30
2017-08-08T23:28:49.218Z,3.50
2017-08-08T23:31:16.730Z,2.97
2017-08-08T23:33:44.228Z,3.37
2017-08-08T23:36:11.747Z,2.93
2017-08-08T23:38:40.031Z,2.37
2017-08-08T23:41:07.537Z,3.63
2017-08-08T23:43:35.056Z,3.03
2017-08-08T23:46:02.564Z,3.47
2017-08-08T23:48:30.099Z,4.60
2017-08-08T23:50:57.605Z,3.60
2017-08-08T23:53:25.103Z,4.70
2017-08-08T23:55:52.624Z,3.00
2017-08-08T23:58:20.132Z,5.93
